»·PEaware :: N1920F KSMX-KBFL

N1920F :: KSMX-KBFL

FLIGHT INFORMATION

Flight Status: Arrived
Operator: Privately registered:
United States
More flights under this callsign
Pilot: Mark S. (16827)
Aircraft: CESSNA 172 SKYHAWK
(C172)
More flights by this aircraft type
Origin: KSMX Santa Maria Pub/Capt Hancock
United States
Destination: KBFL Meadows
United States
More flights between these airports :: More routes between these airports
Route: +
File this flight plan on PilotEdge
Remarks:
Altitude:
(Current/Filed)
7,500ft
Speed:
(Current/Filed)
0kts
Departed: 06-Dec-17 10:12 PM
Arrived: 06-Dec-17 10:59 PM
Distance/Time
Traveled:
76nm/0:46
Distance/Time
To Go:
Arrived

Flight Plot

Page will automatically refresh every two minutes.


Map Options




Map Legend


Flown Route
Filed Route
Departure Airport
Arrival Airport
Navaid (VOR, NDB)
Fix

Horizontal Profiles

Position Reports

Time Latitude Longitude Heading Altitude Ground
Speed
06-Dec-17 22:13 34.895700 -120.444968 314 265ft 0kts
06-Dec-17 22:14 34.894836 -120.444713 201 265ft 10kts
06-Dec-17 22:15 34.893212 -120.444947 185 265ft 0kts
06-Dec-17 22:16 34.893213 -120.444946 185 265ft 0kts
06-Dec-17 22:16 34.893213 -120.444946 185 265ft 0kts
06-Dec-17 22:18 34.905749 -120.460538 329 782ft 82kts
06-Dec-17 22:18 34.913853 -120.449497 84 1513ft 72kts
06-Dec-17 22:19 34.914982 -120.423889 91 2289ft 76kts
06-Dec-17 22:21 34.922618 -120.395499 63 3180ft 77kts
06-Dec-17 22:21 34.931012 -120.376042 67 3782ft 78kts
06-Dec-17 22:23 34.942658 -120.348270 74 4474ft 80kts
06-Dec-17 22:23 34.947551 -120.326789 75 4986ft 79kts
06-Dec-17 22:24 34.953956 -120.301101 68 5582ft 80kts
06-Dec-17 22:25 34.963265 -120.276632 67 6165ft 80kts
06-Dec-17 22:26 34.969712 -120.250052 76 6654ft 86kts
06-Dec-17 22:27 34.975702 -120.222171 72 7142ft 85kts
06-Dec-17 22:28 34.982820 -120.193870 73 7355ft 101kts
06-Dec-17 22:29 34.990229 -120.160643 74 7554ft 97kts
06-Dec-17 22:30 34.997730 -120.125233 72 7393ft 111kts
06-Dec-17 22:31 35.005429 -120.088746 67 7269ft 111kts
06-Dec-17 22:32 35.017919 -120.055167 63 7282ft 106kts
06-Dec-17 22:33 35.030198 -120.022644 60 7391ft 105kts
06-Dec-17 22:34 35.044577 -119.991282 58 7466ft 107kts
06-Dec-17 22:35 35.059633 -119.959793 57 7514ft 107kts
06-Dec-17 22:36 35.075630 -119.929430 49 7562ft 106kts
06-Dec-17 22:37 35.089242 -119.897326 65 7599ft 107kts
06-Dec-17 22:38 35.101581 -119.863889 61 7576ft 109kts
06-Dec-17 22:39 35.114983 -119.830077 63 7342ft 121kts
06-Dec-17 22:40 35.127727 -119.791851 68 7053ft 121kts
06-Dec-17 22:41 35.138964 -119.752849 70 6790ft 122kts
06-Dec-17 22:42 35.152541 -119.715148 61 6541ft 121kts
06-Dec-17 22:43 35.165322 -119.677050 68 6309ft 121kts
06-Dec-17 22:44 35.176365 -119.638095 68 6084ft 121kts
06-Dec-17 22:45 35.186106 -119.598268 72 5739ft 122kts
06-Dec-17 22:46 35.199171 -119.560380 53 5291ft 120kts
06-Dec-17 22:47 35.221355 -119.531072 38 4944ft 117kts
06-Dec-17 22:48 35.245816 -119.505231 58 4620ft 118kts
06-Dec-17 22:49 35.260863 -119.469853 60 4368ft 117kts
06-Dec-17 22:50 35.276071 -119.434721 63 4116ft 117kts
06-Dec-17 22:51 35.291316 -119.399687 57 3889ft 116kts
06-Dec-17 22:52 35.308008 -119.365739 67 3692ft 117kts
06-Dec-17 22:53 35.318479 -119.329205 68 3613ft 116kts
06-Dec-17 22:54 35.332583 -119.293792 62 3537ft 116kts
06-Dec-17 22:55 35.347009 -119.258408 63 3469ft 116kts
06-Dec-17 22:56 35.361188 -119.222867 61 3410ft 116kts
06-Dec-17 22:57 35.377317 -119.188890 58 3359ft 115kts
06-Dec-17 22:58 35.394117 -119.155025 60 2896ft 116kts
06-Dec-17 22:59 35.409048 -119.119680 66 2207ft 116kts
06-Dec-17 23:00 35.419366 -119.085919 73 1611ft 101kts
06-Dec-17 23:01 35.419128 -119.056914 142 1354ft 87kts
06-Dec-17 23:02 35.418947 -119.039673 347 1029ft 88kts
06-Dec-17 23:03 35.433718 -119.056008 318 499ft 49kts
06-Dec-17 23:04 35.436288 -119.057894 67 499ft 2kts
06-Dec-17 23:05 35.435260 -119.055680 136 499ft 11kts
06-Dec-17 23:06 35.434738 -119.053243 238 499ft 9kts
06-Dec-17 23:07 35.434721 -119.053338 265 499ft 0kts
06-Dec-17 23:08 35.434721 -119.053338 265 499ft 0kts
06-Dec-17 23:09 35.434721 -119.053338 265 499ft 0kts

Navigation Log

Ident Type
1. KSMX Airport
2. KBFL Airport